Time;durP1;ratioP1;P1;durP2;ratioP2;P2;SDS_P1;SDS_P2;PMS_P1;PMS_P2;Temp;Humidity;BMP_temperature;BMP_pressure;BME280_temperature;BME280_humidity;BME280_pressure;Samples;Min_cycle;Max_cycle;Signal;HPM_P1;HPM_P2
2021/10/29 00:00:42;;;;;;;26.90;16.80;;;;;;;9.34;46.77;101600.63;117332;1182;22811;-56
2021/10/29 00:03:11;;;;;;;22.80;16.70;;;;;;;9.37;46.76;101600.84;117453;1183;23451;-55
2021/10/29 00:05:40;;;;;;;24.70;16.60;;;;;;;9.37;46.83;101599.27;117361;1183;23592;-60
2021/10/29 00:08:08;;;;;;;25.60;17.50;;;;;;;9.38;46.75;101597.52;117361;1185;21861;-61
2021/10/29 00:10:36;;;;;;;25.10;17.60;;;;;;;9.40;46.87;101601.05;117405;1185;21858;-55
2021/10/29 00:13:05;;;;;;;25.70;17.50;;;;;;;9.40;46.84;101601.77;117526;1183;23637;-61
2021/10/29 00:15:35;;;;;;;19.70;12.00;;;;;;;9.42;46.89;101600.19;117408;1187;23539;-56
2021/10/29 00:18:03;;;;;;;25.90;17.10;;;;;;;9.43;46.88;101600.21;117509;1179;22645;-55
2021/10/29 00:20:32;;;;;;;24.20;16.70;;;;;;;9.44;47.00;101600.59;117496;1183;23464;-56
2021/10/29 00:23:00;;;;;;;23.50;17.00;;;;;;;9.44;47.09;101597.61;117590;1182;23544;-55
2021/10/29 00:25:28;;;;;;;24.50;16.70;;;;;;;9.44;47.00;101597.77;117531;1184;23442;-56
2021/10/29 00:27:57;;;;;;;28.40;17.30;;;;;;;9.44;46.72;101596.55;117647;1182;22895;-60
2021/10/29 00:30:25;;;;;;;24.60;17.30;;;;;;;9.43;47.06;101597.23;117521;1185;21857;-56
2021/10/29 00:32:56;;;;;;;24.80;17.20;;;;;;;9.42;46.77;101595.82;117498;1183;24165;-61
2021/10/29 00:35:24;;;;;;;27.20;17.30;;;;;;;9.41;47.05;101595.27;117473;1182;21858;-55
2021/10/29 00:37:53;;;;;;;25.90;17.60;;;;;;;9.41;47.10;101593.88;117555;1183;21858;-61
2021/10/29 00:40:21;;;;;;;26.30;18.10;;;;;;;9.40;47.05;101589.84;117562;1184;23468;-55
2021/10/29 00:42:50;;;;;;;25.90;17.20;;;;;;;9.42;47.00;101586.18;117549;1185;21954;-61
2021/10/29 00:45:18;;;;;;;27.70;17.90;;;;;;;9.43;47.00;101587.42;117479;1182;21858;-60
2021/10/29 00:47:46;;;;;;;25.60;18.00;;;;;;;9.44;47.01;101585.34;117531;1176;23344;-56
2021/10/29 00:50:14;;;;;;;31.20;19.00;;;;;;;9.44;46.84;101580.96;117530;1183;23465;-61
2021/10/29 00:52:42;;;;;;;26.40;18.70;;;;;;;9.45;47.06;101586.40;117502;1182;23477;-55
2021/10/29 00:55:11;;;;;;;29.60;19.10;;;;;;;9.45;47.07;101586.41;117515;1184;23439;-61
2021/10/29 00:57:40;;;;;;;26.30;18.40;;;;;;;9.46;47.03;101585.36;117541;1182;24204;-61
2021/10/29 01:00:10;;;;;;;27.20;18.00;;;;;;;9.46;46.96;101583.96;117523;1182;23540;-61
2021/10/29 01:02:39;;;;;;;29.10;18.20;;;;;;;9.46;47.14;101583.08;117463;1182;22642;-56
2021/10/29 01:05:08;;;;;;;25.70;17.30;;;;;;;9.46;47.14;101580.10;117351;1183;23448;-60
2021/10/29 01:07:37;;;;;;;23.00;18.00;;;;;;;9.46;47.19;101580.45;117439;1185;21868;-60
2021/10/29 01:10:06;;;;;;;27.00;18.40;;;;;;;9.45;47.01;101584.48;117416;1185;21855;-57
2021/10/29 01:12:36;;;;;;;26.40;18.60;;;;;;;9.45;47.11;101583.23;117420;1185;24218;-56
2021/10/29 01:15:05;;;;;;;27.10;18.20;;;;;;;9.45;47.18;101582.38;117351;1183;24152;-56
2021/10/29 01:17:33;;;;;;;29.30;18.30;;;;;;;9.45;47.23;101582.89;117409;1186;21858;-56
2021/10/29 01:20:02;;;;;;;26.50;17.30;;;;;;;9.44;47.20;101579.20;117385;1182;23439;-56
2021/10/29 01:22:32;;;;;;;24.70;17.50;;;;;;;9.42;47.05;101579.36;117530;1185;21864;-56
2021/10/29 01:25:00;;;;;;;25.50;18.10;;;;;;;9.41;47.14;101579.87;117489;1182;21855;-61
2021/10/29 01:27:29;;;;;;;27.40;18.30;;;;;;;9.41;47.24;101582.49;117487;1186;22908;-56
2021/10/29 01:29:59;;;;;;;26.10;17.70;;;;;;;9.37;47.16;101584.38;117481;1186;21857;-56
2021/10/29 01:32:27;;;;;;;26.10;18.00;;;;;;;9.36;47.11;101582.61;117425;1185;21862;-60
2021/10/29 01:34:55;;;;;;;27.60;18.10;;;;;;;9.37;47.15;101584.54;117589;1185;21868;-56
2021/10/29 01:37:25;;;;;;;29.10;17.70;;;;;;;9.36;47.11;101585.23;117540;1183;23442;-55
2021/10/29 01:39:54;;;;;;;30.30;18.80;;;;;;;9.35;47.35;101588.03;117574;1185;21895;-56
2021/10/29 01:42:22;;;;;;;27.40;18.70;;;;;;;9.33;47.25;101586.78;117555;1182;23601;-61
2021/10/29 01:44:55;;;;;;;28.10;19.00;;;;;;;9.33;47.23;101587.29;117453;1182;21865;-56
2021/10/29 01:47:24;;;;;;;25.70;18.50;;;;;;;9.34;47.29;101588.37;117386;1186;21872;-56
2021/10/29 01:49:52;;;;;;;28.30;18.80;;;;;;;9.38;47.39;101585.61;117438;1182;23469;-56
2021/10/29 01:52:21;;;;;;;30.10;19.10;;;;;;;9.43;47.32;101584.27;117437;1183;23446;-56
2021/10/29 01:54:49;;;;;;;31.60;20.40;;;;;;;9.50;47.35;101585.58;117473;1180;21858;-61
2021/10/29 01:57:17;;;;;;;30.70;19.30;;;;;;;9.58;47.39;101585.31;117384;1185;23547;-56
2021/10/29 01:59:45;;;;;;;30.70;20.20;;;;;;;9.63;47.54;101586.59;117451;1182;23469;-57
2021/10/29 02:02:13;;;;;;;26.40;19.80;;;;;;;9.67;47.41;101586.64;117450;1185;21852;-61
2021/10/29 02:04:43;;;;;;;30.50;20.10;;;;;;;9.74;47.44;101585.13;117583;1182;23542;-61
2021/10/29 02:07:11;;;;;;;29.30;19.80;;;;;;;9.83;47.61;101589.79;117569;1185;21851;-61
2021/10/29 02:09:39;;;;;;;32.60;20.90;;;;;;;9.92;47.74;101587.24;117517;1185;21865;-62
2021/10/29 02:12:08;;;;;;;29.20;20.40;;;;;;;10.00;47.69;101582.59;117332;1185;21852;-62
2021/10/29 02:14:36;;;;;;;28.50;19.80;;;;;;;10.09;47.73;101585.65;117381;1183;23044;-57
2021/10/29 02:17:04;;;;;;;28.60;19.00;;;;;;;10.18;47.78;101588.19;117361;1184;22828;-61
2021/10/29 02:19:33;;;;;;;31.00;20.10;;;;;;;10.24;47.79;101590.34;117379;1183;22366;-56
2021/10/29 02:22:01;;;;;;;26.70;20.10;;;;;;;10.30;47.89;101590.56;117406;1182;22912;-61
2021/10/29 02:24:30;;;;;;;25.70;18.80;;;;;;;10.39;47.79;101591.36;117417;1182;21899;-61
2021/10/29 02:26:58;;;;;;;28.60;20.60;;;;;;;10.45;47.87;101592.81;117427;1186;21858;-61
2021/10/29 02:29:26;;;;;;;27.00;19.30;;;;;;;10.51;47.94;101598.48;117440;1182;23442;-57
2021/10/29 02:31:55;;;;;;;29.30;19.10;;;;;;;10.57;47.78;101595.20;117333;1182;23629;-57
2021/10/29 02:34:23;;;;;;;33.80;21.30;;;;;;;10.62;47.89;101596.28;117375;1185;21880;-56
2021/10/29 02:36:51;;;;;;;27.60;19.50;;;;;;;10.67;47.90;101600.52;117396;1185;21869;-61
2021/10/29 02:39:19;;;;;;;27.60;19.60;;;;;;;10.73;47.88;101598.98;117599;1182;21872;-56
2021/10/29 02:41:47;;;;;;;29.60;20.70;;;;;;;10.77;47.82;101597.96;117502;1185;22889;-58
2021/10/29 02:44:15;;;;;;;30.30;19.40;;;;;;;10.82;48.02;101601.31;117500;1184;22524;-57
2021/10/29 02:46:44;;;;;;;29.30;19.70;;;;;;;10.87;47.81;101603.46;117555;1184;23469;-62
2021/10/29 02:49:13;;;;;;;29.30;19.90;;;;;;;10.91;48.01;101604.36;117455;1182;24207;-56
2021/10/29 02:51:42;;;;;;;25.20;18.50;;;;;;;10.94;47.97;101603.50;117391;1183;23580;-56
2021/10/29 02:54:10;;;;;;;26.40;18.40;;;;;;;11.00;47.91;101605.64;117369;1186;21854;-61
2021/10/29 02:56:38;;;;;;;28.10;19.50;;;;;;;11.05;48.02;101600.58;117502;1185;21989;-56
2021/10/29 02:59:06;;;;;;;27.30;19.10;;;;;;;11.09;48.03;101607.44;117460;1185;21854;-56
2021/10/29 03:01:35;;;;;;;28.70;20.20;;;;;;;11.12;47.96;101603.77;117483;1183;21855;-62
2021/10/29 03:04:05;;;;;;;30.00;19.80;;;;;;;11.15;47.94;101597.12;117568;1181;24148;-61
2021/10/29 03:06:33;;;;;;;27.70;18.80;;;;;;;11.21;47.83;101599.43;117343;1185;21891;-61
2021/10/29 03:09:02;;;;;;;27.10;18.70;;;;;;;11.24;47.91;101599.27;117449;1183;21876;-60
2021/10/29 03:11:31;;;;;;;31.40;18.60;;;;;;;11.26;47.93;101601.56;117520;1186;21869;-61
2021/10/29 03:13:59;;;;;;;25.20;18.30;;;;;;;11.29;48.18;101600.52;117485;1182;23534;-56
2021/10/29 03:16:27;;;;;;;28.00;19.00;;;;;;;11.32;48.16;101602.64;117626;1184;24165;-60
2021/10/29 03:18:57;;;;;;;30.30;18.50;;;;;;;11.35;48.05;101603.17;117467;1183;22929;-56
2021/10/29 03:21:26;;;;;;;25.30;18.90;;;;;;;11.37;47.95;101607.92;117405;1183;21858;-56
2021/10/29 03:23:54;;;;;;;26.20;18.50;;;;;;;11.39;48.00;101608.82;117600;1182;23089;-61
2021/10/29 03:26:22;;;;;;;25.30;18.80;;;;;;;11.43;48.16;101608.85;117555;1186;23891;-56
2021/10/29 03:28:50;;;;;;;31.50;19.90;;;;;;;11.48;48.01;101614.30;117495;1182;23442;-60
2021/10/29 03:31:20;;;;;;;28.30;20.40;;;;;;;11.51;48.14;101613.25;117548;1182;23439;-57
2021/10/29 03:33:48;;;;;;;27.10;19.00;;;;;;;11.55;48.05;101616.08;117592;1184;21858;-61
2021/10/29 03:36:17;;;;;;;24.70;18.60;;;;;;;11.58;48.21;101617.67;117465;1185;21857;-61
2021/10/29 03:41:19;;;;;;;26.10;19.40;;;;;;;11.64;48.22;101618.58;117397;1184;24228;-61
2021/10/29 03:46:25;;;;;;;25.60;17.70;;;;;;;11.68;48.27;101620.70;117456;1186;21881;-57
2021/10/29 03:51:42;;;;;;;27.10;19.40;;;;;;;11.73;48.18;101628.09;117423;1183;23554;-57
2021/10/29 03:54:18;;;;;;;24.20;18.50;;;;;;;11.77;48.22;101629.52;117362;1185;21854;-57
2021/10/29 03:56:56;;;;;;;27.90;18.10;;;;;;;11.81;48.26;101634.27;117342;1185;21864;-57
2021/10/29 03:59:24;;;;;;;32.90;19.00;;;;;;;11.86;48.14;101635.52;117431;1183;23449;-61
2021/10/29 04:01:53;;;;;;;33.60;19.00;;;;;;;11.89;48.16;101639.05;117440;1184;21845;-57
2021/10/29 04:04:21;;;;;;;29.50;18.00;;;;;;;11.91;48.24;101638.00;117324;1185;22804;-57
2021/10/29 04:06:50;;;;;;;32.50;19.10;;;;;;;11.92;48.26;101639.75;117448;1185;23465;-60
2021/10/29 04:09:19;;;;;;;30.20;17.20;;;;;;;11.96;48.23;101640.98;117654;1184;22985;-59
2021/10/29 04:11:48;;;;;;;32.80;18.70;;;;;;;11.99;48.33;101641.02;117380;1184;23449;-61
2021/10/29 04:14:19;;;;;;;36.30;18.40;;;;;;;12.02;48.27;101642.63;117418;1182;23436;-59
2021/10/29 04:16:48;;;;;;;29.90;17.90;;;;;;;12.04;48.31;101636.81;117627;1184;21879;-61
2021/10/29 04:19:16;;;;;;;30.40;19.20;;;;;;;12.06;48.43;101637.70;117360;1185;21848;-60
2021/10/29 04:21:45;;;;;;;40.90;19.70;;;;;;;12.10;48.41;101637.36;117470;1185;22303;-61
2021/10/29 04:24:13;;;;;;;44.80;19.80;;;;;;;12.19;48.49;101639.30;117554;1179;23442;-58
2021/10/29 04:26:42;;;;;;;43.70;17.60;;;;;;;12.25;48.49;101640.53;117394;1183;23441;-61
2021/10/29 04:29:14;;;;;;;34.00;17.50;;;;;;;12.26;48.38;101646.35;117524;1184;21854;-61
2021/10/29 04:31:49;;;;;;;28.80;18.00;;;;;;;12.28;48.31;101647.06;117478;1182;23442;-61
2021/10/29 04:34:18;;;;;;;28.70;16.50;;;;;;;12.48;48.02;101650.39;117501;1183;22928;-61
2021/10/29 04:36:47;;;;;;;30.70;17.50;;;;;;;13.05;47.00;101653.88;117630;1183;23497;-61
2021/10/29 04:39:15;;;;;;;46.00;18.80;;;;;;;13.23;46.67;101655.05;117407;1186;21865;-59
2021/10/29 04:41:46;;;;;;;36.50;17.60;;;;;;;13.10;46.97;101657.02;117527;1183;23464;-61
2021/10/29 04:44:15;;;;;;;31.80;18.60;;;;;;;12.84;47.49;101660.95;117533;1185;21857;-58
2021/10/29 04:46:44;;;;;;;39.40;18.90;;;;;;;12.50;48.05;101668.54;117444;1182;22902;-58
2021/10/29 04:49:13;;;;;;;31.50;18.90;;;;;;;12.47;48.23;101672.77;117496;1182;21854;-57
2021/10/29 04:51:41;;;;;;;38.80;18.70;;;;;;;12.44;48.36;101671.18;117560;1185;21879;-58
2021/10/29 04:54:09;;;;;;;35.50;18.30;;;;;;;12.44;48.20;101673.64;117394;1185;21854;-61
2021/10/29 04:56:37;;;;;;;65.50;21.60;;;;;;;12.43;48.34;101677.69;117497;1182;21858;-58
2021/10/29 04:59:06;;;;;;;30.10;19.20;;;;;;;12.43;48.30;101681.20;117446;1176;21854;-62
2021/10/29 05:01:34;;;;;;;31.20;19.90;;;;;;;12.43;48.41;101681.74;117586;1185;21860;-63
2021/10/29 05:04:03;;;;;;;31.00;19.30;;;;;;;12.45;48.44;101685.45;117487;1185;23534;-63
2021/10/29 05:06:31;;;;;;;28.70;19.00;;;;;;;12.46;48.38;101685.61;117518;1184;23449;-62
2021/10/29 05:09:00;;;;;;;31.40;18.30;;;;;;;12.46;48.31;101683.51;117524;1184;22087;-59
2021/10/29 05:11:28;;;;;;;31.10;19.10;;;;;;;12.47;48.32;101685.96;117516;1185;23469;-59
2021/10/29 05:13:56;;;;;;;31.00;18.10;;;;;;;12.48;48.37;101687.90;117532;1183;23470;-62
2021/10/29 05:16:25;;;;;;;48.60;22.20;;;;;;;12.48;48.40;101691.08;117540;1182;23464;-62
2021/10/29 05:18:57;;;;;;;31.50;19.10;;;;;;;12.50;48.39;101696.89;117515;1182;21859;-62
2021/10/29 05:21:26;;;;;;;30.80;18.90;;;;;;;12.51;48.38;101703.58;117547;1182;21869;-62
2021/10/29 05:23:54;;;;;;;27.30;18.80;;;;;;;12.52;48.47;101698.84;117488;1185;23442;-58
2021/10/29 05:26:23;;;;;;;29.60;17.50;;;;;;;12.55;48.43;101701.46;117580;1184;21854;-62
2021/10/29 05:28:51;;;;;;;29.80;19.60;;;;;;;12.57;48.56;101707.98;117483;1184;21899;-58
2021/10/29 05:31:19;;;;;;;25.70;18.30;;;;;;;12.59;48.40;101712.37;117429;1183;22619;-62
2021/10/29 05:33:47;;;;;;;26.60;18.70;;;;;;;12.60;48.63;101715.02;117376;1182;23468;-58
2021/10/29 05:36:16;;;;;;;28.90;20.40;;;;;;;12.62;48.46;101712.39;117467;1182;21857;-61
2021/10/29 05:38:44;;;;;;;35.80;18.20;;;;;;;12.63;48.58;101712.56;117480;1185;21844;-61
2021/10/29 05:41:12;;;;;;;35.40;20.70;;;;;;;12.67;48.56;101716.08;117317;1185;21856;-58
2021/10/29 05:43:40;;;;;;;30.40;18.90;;;;;;;12.70;48.65;101712.39;117525;1185;24166;-59
2021/10/29 05:46:08;;;;;;;26.00;18.60;;;;;;;12.73;48.63;101715.91;117521;1185;21946;-59
2021/10/29 05:48:42;;;;;;;28.50;17.60;;;;;;;12.76;48.65;101716.63;117565;1186;21858;-62
2021/10/29 05:51:10;;;;;;;27.50;17.70;;;;;;;12.81;48.78;101719.96;117591;1185;21881;-61
2021/10/29 05:54:35;;;;;;;31.50;17.60;;;;;;;12.87;48.69;101721.73;117536;1183;21849;-61
2021/10/29 05:56:29;;;;;;;25.00;18.10;;;;;;;12.93;48.62;101722.61;117481;1174;21855;-61
2021/10/29 05:59:03;;;;;;;26.80;18.30;;;;;;;13.00;48.67;101721.02;117518;1185;22934;-58
2021/10/29 06:01:32;;;;;;;29.30;18.60;;;;;;;13.05;48.66;101721.35;117510;1182;21853;-62
2021/10/29 06:04:01;;;;;;;25.00;18.30;;;;;;;13.12;48.72;101720.46;117521;1184;21862;-61
2021/10/29 06:06:29;;;;;;;27.20;18.10;;;;;;;13.16;48.73;101723.11;117642;1185;23449;-61
2021/10/29 06:08:57;;;;;;;24.20;18.00;;;;;;;13.23;48.93;101727.68;117376;1185;21902;-60
2021/10/29 06:11:28;;;;;;;28.20;18.00;;;;;;;13.30;48.85;101725.55;117370;1182;21898;-58
2021/10/29 06:13:57;;;;;;;28.60;19.40;;;;;;;13.38;48.82;101730.48;117431;1185;23441;-61
2021/10/29 06:16:26;;;;;;;26.60;19.70;;;;;;;13.46;48.91;101728.89;117390;1185;23451;-59
2021/10/29 06:18:58;;;;;;;26.80;19.00;;;;;;;13.52;48.89;101727.81;117423;1183;23468;-59
2021/10/29 06:21:43;;;;;;;35.50;18.90;;;;;;;13.58;48.86;101732.21;117430;1185;23465;-60
2021/10/29 06:24:14;;;;;;;27.70;17.70;;;;;;;13.67;48.97;101734.83;117440;1182;22648;-59
2021/10/29 06:26:49;;;;;;;26.20;17.50;;;;;;;13.75;48.93;101739.38;117382;1184;21866;-59
2021/10/29 06:29:18;;;;;;;27.00;19.00;;;;;;;13.81;48.93;101738.30;117424;1185;21856;-59
2021/10/29 06:31:46;;;;;;;31.20;20.50;;;;;;;13.87;48.96;101737.39;117429;1183;21860;-62
2021/10/29 06:34:15;;;;;;;30.00;19.30;;;;;;;13.95;48.96;101740.36;117469;1183;23469;-59
2021/10/29 06:36:43;;;;;;;29.40;19.90;;;;;;;14.03;48.95;101745.98;117384;1183;23625;-59
2021/10/29 06:39:11;;;;;;;30.30;20.40;;;;;;;14.04;49.14;101744.91;117358;1185;21861;-58
2021/10/29 06:41:39;;;;;;;31.10;20.30;;;;;;;14.11;49.05;101744.88;117427;1183;23464;-58
2021/10/29 06:59:10;;;;;;;29.30;21.30;;;;;;;14.42;49.17;101745.04;117539;1182;23439;-61
2021/10/29 07:42:14;;;;;;;31.70;21.30;;;;;;;16.43;49.25;101735.18;117380;1186;21917;-58
2021/10/29 07:44:43;;;;;;;38.10;23.60;;;;;;;16.49;49.32;101732.09;117505;1182;21849;-59
2021/10/29 07:47:11;;;;;;;31.80;21.80;;;;;;;16.57;49.34;101725.58;117545;1186;21917;-62
2021/10/29 07:49:39;;;;;;;28.50;21.10;;;;;;;16.64;49.30;101725.98;117433;1180;23442;-59
2021/10/29 07:52:09;;;;;;;27.00;20.40;;;;;;;16.72;49.37;101729.23;117547;1185;22648;-61
2021/10/29 07:54:44;;;;;;;27.00;20.40;;;;;;;16.77;49.34;101730.20;117346;1182;21902;-58
2021/10/29 07:57:13;;;;;;;25.50;20.00;;;;;;;16.83;49.33;101732.43;117329;1185;23564;-62
2021/10/29 07:59:43;;;;;;;25.70;19.40;;;;;;;16.87;49.39;101738.38;117448;1186;22899;-59
2021/10/29 08:02:11;;;;;;;26.60;20.40;;;;;;;16.93;49.27;101746.61;117405;1180;22063;-62
2021/10/29 08:04:40;;;;;;;29.90;20.10;;;;;;;16.99;49.36;101742.47;117491;1186;23456;-59
2021/10/29 08:07:09;;;;;;;26.20;20.30;;;;;;;17.05;49.30;101750.86;117489;1185;22664;-59
2021/10/29 08:09:37;;;;;;;28.90;20.70;;;;;;;17.11;49.40;101749.52;117488;1182;21883;-58
2021/10/29 08:12:07;;;;;;;28.20;20.80;;;;;;;17.19;49.31;101753.66;117560;1185;21827;-63
2021/10/29 08:14:35;;;;;;;27.70;21.10;;;;;;;17.27;49.33;101754.91;117499;1186;22646;-59
2021/10/29 08:17:03;;;;;;;29.40;21.20;;;;;;;17.36;49.34;101752.63;117502;1176;21855;-59
2021/10/29 08:19:33;;;;;;;27.90;20.60;;;;;;;17.45;49.38;101755.48;117522;1183;21856;-62
2021/10/29 08:22:03;;;;;;;25.60;20.40;;;;;;;17.53;49.35;101757.28;117513;1183;23464;-58
2021/10/29 08:24:33;;;;;;;28.40;21.00;;;;;;;17.60;49.39;101754.66;117423;1183;21863;-62
2021/10/29 08:27:03;;;;;;;30.50;22.80;;;;;;;17.69;49.38;101756.59;117525;1182;23550;-59
2021/10/29 08:29:31;;;;;;;27.10;21.40;;;;;;;17.76;49.51;101759.13;117546;1185;21854;-62
2021/10/29 08:32:01;;;;;;;29.50;21.70;;;;;;;17.85;49.44;101760.71;117505;1182;23468;-62
2021/10/29 08:34:31;;;;;;;32.90;24.70;;;;;;;17.95;49.38;101762.27;117515;1182;23003;-58
2021/10/29 08:36:59;;;;;;;30.30;22.10;;;;;;;18.05;49.45;101761.57;117527;1186;22953;-58
2021/10/29 08:39:35;;;;;;;29.20;21.50;;;;;;;18.14;49.34;101763.67;117561;1185;21853;-58
2021/10/29 08:42:04;;;;;;;27.70;21.90;;;;;;;18.21;49.22;101762.46;117636;1182;23465;-63
2021/10/29 08:44:33;;;;;;;30.80;22.60;;;;;;;18.25;49.30;101766.11;117562;1186;21858;-58
2021/10/29 08:47:02;;;;;;;27.30;20.70;;;;;;;18.28;49.28;101766.74;117588;1184;23545;-62
2021/10/29 08:49:32;;;;;;;26.30;21.70;;;;;;;18.34;49.19;101768.39;117465;1185;22705;-61
2021/10/29 08:52:07;;;;;;;30.00;22.40;;;;;;;18.38;49.25;101764.39;117592;1184;23556;-59
2021/10/29 08:54:35;;;;;;;28.10;20.90;;;;;;;18.43;49.22;101764.63;117392;1186;23451;-58
2021/10/29 08:57:04;;;;;;;25.40;20.70;;;;;;;18.48;49.26;101766.85;117421;1184;23442;-59
2021/10/29 08:59:34;;;;;;;27.50;21.20;;;;;;;18.52;49.21;101767.81;117407;1186;21921;-59
2021/10/29 09:02:08;;;;;;;26.20;21.40;;;;;;;18.56;49.28;101767.16;117372;1185;23457;-59
2021/10/29 09:05:48;;;;;;;27.20;21.40;;;;;;;18.58;49.30;101769.80;117438;1185;21845;-62
2021/10/29 09:08:01;;;;;;;32.40;23.20;;;;;;;18.65;49.31;101769.48;117408;1185;21855;-62
2021/10/29 09:35:33;;;;;;;23.40;17.40;;;;;;;19.29;49.44;101754.37;117375;1186;23471;-59
2021/10/29 09:38:06;;;;;;;20.30;16.20;;;;;;;19.38;49.36;101754.85;117399;1186;21858;-62
2021/10/29 09:40:43;;;;;;;23.30;15.80;;;;;;;19.48;49.39;101754.56;117408;1185;23199;-62
2021/10/29 09:43:14;;;;;;;16.20;13.40;;;;;;;19.54;49.36;101752.63;117477;1185;22917;-60
2021/10/29 09:45:50;;;;;;;17.80;14.00;;;;;;;19.59;49.39;101749.99;117629;1185;23478;-62
2021/10/29 09:48:35;;;;;;;18.80;14.60;;;;;;;19.65;49.31;101749.83;117492;1186;21860;-62
2021/10/29 09:51:12;;;;;;;19.20;13.90;;;;;;;19.72;49.34;101750.14;117481;1186;23520;-60
2021/10/29 09:56:32;;;;;;;16.40;13.90;;;;;;;19.87;49.25;101752.58;117491;1183;21863;-63
2021/10/29 09:59:01;;;;;;;19.20;13.50;;;;;;;19.95;49.27;101749.54;117546;1186;21845;-60
2021/10/29 10:01:30;;;;;;;17.20;13.40;;;;;;;20.01;49.27;101750.41;117489;1185;23334;-59
2021/10/29 10:04:05;;;;;;;18.10;12.50;;;;;;;20.09;49.31;101750.15;117365;1182;23487;-60
2021/10/29 10:06:41;;;;;;;;;;;;;;;20.17;49.31;101749.73;117476;1182;23449;-58
2021/10/29 10:09:09;;;;;;;14.20;10.90;;;;;;;20.26;49.25;101748.39;117442;1183;22724;-62
2021/10/29 10:11:39;;;;;;;23.80;13.30;;;;;;;20.34;49.30;101745.83;117331;1185;21869;-60
2021/10/29 10:14:09;;;;;;;23.20;11.90;;;;;;;20.51;49.10;101748.85;117504;1185;21893;-61
2021/10/29 10:16:41;;;;;;;14.00;9.70;;;;;;;21.23;47.84;101743.06;117387;1185;23483;-58
2021/10/29 10:19:10;;;;;;;17.60;11.50;;;;;;;21.51;47.49;101744.23;117529;1185;22651;-60
2021/10/29 10:21:41;;;;;;;31.30;15.00;;;;;;;21.63;47.42;101743.63;117506;1185;23470;-58
2021/10/29 10:24:14;;;;;;;;;;;;;;;21.24;48.15;101738.39;117431;1185;21844;-61
2021/10/29 10:46:18;;;;;;;17.60;10.50;;;;;;;21.60;49.04;101730.70;117514;1184;24182;-58
2021/10/29 10:55:07;;;;;;;15.30;9.20;;;;;;;22.13;48.67;101717.99;117491;1182;21921;-57
2021/10/29 11:10:57;;;;;;;10.60;7.20;;;;;;;23.57;49.07;101705.33;116909;1188;21892;-60
2021/10/29 11:13:46;;;;;;;9.50;6.60;;;;;;;23.81;49.00;101704.95;116932;1188;21858;-60
2021/10/29 11:16:38;;;;;;;15.80;7.50;;;;;;;23.90;48.72;101704.69;116958;1188;21864;-63
2021/10/29 11:19:16;;;;;;;9.10;7.10;;;;;;;23.86;48.46;101709.38;117095;1188;21849;-60
2021/10/29 11:21:52;;;;;;;12.80;6.60;;;;;;;23.74;48.25;101703.30;116989;1188;21930;-57
2021/10/29 11:24:33;;;;;;;11.60;6.70;;;;;;;23.61;48.07;101702.80;116994;1185;21870;-59
2021/10/29 11:27:16;;;;;;;6.30;4.10;;;;;;;23.50;48.02;101705.48;117016;1186;21865;-58
2021/10/29 11:29:46;;;;;;;8.10;6.10;;;;;;;23.33;47.87;101704.62;117009;1187;21919;-58
2021/10/29 11:32:17;;;;;;;9.60;6.40;;;;;;;23.15;47.94;101704.48;116971;1188;21855;-61
2021/10/29 11:34:49;;;;;;;10.90;7.20;;;;;;;22.96;48.01;101706.02;116983;1185;21864;-60
2021/10/29 11:37:17;;;;;;;13.70;7.00;;;;;;;22.78;47.84;101707.88;117022;1186;21877;-61
2021/10/29 11:39:46;;;;;;;11.30;7.20;;;;;;;22.64;47.84;101709.36;117548;1183;24163;-58
2021/10/29 11:42:18;;;;;;;14.30;6.90;;;;;;;22.53;47.87;101711.22;117556;1183;21915;-58
2021/10/29 11:44:47;;;;;;;9.30;6.60;;;;;;;22.43;47.72;101711.63;117206;1183;21884;-59
2021/10/29 11:47:15;;;;;;;12.70;6.80;;;;;;;22.31;47.56;101711.19;117413;1185;21907;-58
2021/10/29 11:49:44;;;;;;;9.70;6.00;;;;;;;22.19;47.69;101712.05;117406;1185;22013;-60
2021/10/29 11:52:14;;;;;;;9.90;6.20;;;;;;;22.07;47.68;101711.95;117403;1185;22917;-61
2021/10/29 11:54:47;;;;;;;13.30;6.30;;;;;;;21.96;47.75;101712.41;117367;1185;23526;-58
2021/10/29 12:07:34;;;;;;;7.50;5.00;;;;;;;21.50;47.63;101716.59;117341;1182;21989;-61
2021/10/29 12:10:18;;;;;;;6.50;4.50;;;;;;;21.41;47.59;101713.90;117346;1185;21848;-60
2021/10/29 12:12:50;;;;;;;9.20;5.60;;;;;;;21.28;47.46;101715.41;117380;1185;22928;-59
2021/10/29 12:15:21;;;;;;;6.90;5.10;;;;;;;21.18;47.55;101717.95;117373;1185;21871;-59
2021/10/29 12:18:06;;;;;;;8.40;5.10;;;;;;;21.08;47.55;101716.85;117382;1185;23499;-59
2021/10/29 12:20:45;;;;;;;10.20;5.30;;;;;;;21.00;47.62;101716.23;117362;1185;21891;-61
2021/10/29 12:23:27;;;;;;;14.60;6.10;;;;;;;20.92;47.64;101716.69;117385;1182;22918;-61
2021/10/29 12:26:03;;;;;;;12.30;6.50;;;;;;;20.87;47.60;101719.70;117360;1184;21848;-59
2021/10/29 12:31:20;;;;;;;14.00;5.30;;;;;;;20.77;47.59;101718.62;117338;1185;21845;-58
2021/10/29 12:53:50;;;;;;;7.80;5.10;;;;;;;20.50;47.40;101710.91;117374;1185;22643;-61
2021/10/29 13:01:57;;;;;;;12.80;5.80;;;;;;;20.22;47.26;101713.24;117415;1185;23469;-59
2021/10/29 13:04:52;;;;;;;9.20;6.20;;;;;;;20.18;47.33;101711.02;117347;1185;23477;-59
2021/10/29 13:07:28;;;;;;;9.00;6.00;;;;;;;20.19;47.44;101706.54;117291;1182;22919;-59
2021/10/29 13:10:16;;;;;;;9.70;5.00;;;;;;;20.25;47.37;101703.02;117315;1186;21858;-59
2021/10/29 13:13:10;;;;;;;8.10;5.20;;;;;;;20.34;47.39;101702.50;117335;1185;23445;-62
2021/10/29 13:15:39;;;;;;;10.50;4.90;;;;;;;20.51;47.33;101700.36;117362;1186;21852;-61
2021/10/29 13:18:13;;;;;;;8.40;4.80;;;;;;;21.14;46.56;101695.58;117403;1182;22802;-61
2021/10/29 13:21:03;;;;;;;7.80;5.10;;;;;;;21.45;46.37;101696.05;117386;1185;21861;-61
2021/10/29 13:36:54;;;;;;;15.10;8.10;;;;;;;22.06;45.79;101697.71;117361;1185;22933;-60
2021/10/29 13:51:29;;;;;;;15.20;7.90;;;;;;;21.18;46.85;101699.19;117325;1185;22917;-61
2021/10/29 14:32:23;;;;;;;9.30;6.00;;;;;;;19.54;46.67;101717.55;117298;1186;21869;-61
2021/10/29 14:34:54;;;;;;;12.80;6.50;;;;;;;19.43;46.62;101713.76;117301;1185;22879;-60
2021/10/29 14:37:38;;;;;;;11.40;7.90;;;;;;;19.32;46.66;101712.83;117391;1185;23551;-59
2021/10/29 15:00:25;;;;;;;15.30;8.90;;;;;;;18.26;46.47;101715.45;117579;1184;22652;-59
2021/10/29 15:14:49;;;;;;;23.20;10.00;;;;;;;17.75;46.37;101723.11;117536;1183;23544;-60
2021/10/29 15:27:45;;;;;;;23.30;9.50;;;;;;;16.34;46.34;101742.39;117456;1185;23439;-59
2021/10/29 15:30:39;;;;;;;20.30;8.50;;;;;;;16.19;46.25;101744.03;117481;1186;21876;-61
2021/10/29 15:41:48;;;;;;;33.70;13.70;;;;;;;15.48;46.23;101744.69;117309;1182;22916;-59
2021/10/29 15:44:33;;;;;;;;;;;;;;;15.26;46.30;101746.16;117421;1183;23453;-60
2021/10/29 15:47:05;;;;;;;19.80;13.10;;;;;;;15.06;46.26;101750.77;117410;1182;24877;-61
2021/10/29 15:49:41;;;;;;;20.70;13.00;;;;;;;14.86;46.24;101756.06;117495;1183;22039;-60
2021/10/29 15:52:15;;;;;;;19.20;13.00;;;;;;;14.66;46.28;101760.60;117528;1185;21950;-59
2021/10/29 15:54:52;;;;;;;19.50;13.10;;;;;;;14.49;46.22;101768.31;117502;1186;21880;-58
2021/10/29 15:57:26;;;;;;;24.70;13.90;;;;;;;14.33;46.29;101771.05;117488;1183;22989;-61
2021/10/29 16:18:59;;;;;;;49.60;39.40;;;;;;;12.96;46.19;101789.73;117506;1183;23474;-58
2021/10/29 16:21:29;;;;;;;50.90;40.50;;;;;;;12.82;46.21;101795.88;117447;1186;23452;-59
2021/10/29 16:23:57;;;;;;;65.60;36.20;;;;;;;12.72;46.23;101802.39;117520;1186;21848;-60
2021/10/29 16:26:25;;;;;;;71.10;49.90;;;;;;;12.62;46.44;101802.54;117546;1184;21856;-58